createdAt,value
2022-08-10T00:00:54.708Z,2.20
2022-08-10T00:03:21.638Z,2.20
2022-08-10T00:05:52.832Z,2.33
2022-08-10T00:08:25.230Z,2.45
2022-08-10T00:10:53.028Z,2.17
2022-08-10T00:13:19.918Z,2.25
2022-08-10T00:15:53.409Z,2.30
2022-08-10T00:18:34.796Z,2.40
2022-08-10T00:21:02.697Z,2.05
2022-08-10T00:23:29.607Z,2.25
2022-08-10T00:25:56.464Z,2.10
2022-08-10T00:28:23.424Z,1.98
2022-08-10T00:30:50.398Z,2.17
2022-08-10T00:33:17.239Z,2.05
2022-08-10T00:35:44.218Z,2.50
2022-08-10T00:38:11.080Z,2.25
2022-08-10T00:40:38.425Z,2.30
2022-08-10T00:43:08.284Z,2.22
2022-08-10T00:45:35.685Z,2.08
2022-08-10T00:48:02.572Z,2.25
2022-08-10T00:50:29.707Z,2.10
2022-08-10T00:52:56.744Z,2.10
2022-08-10T00:55:23.611Z,2.17
2022-08-10T00:57:54.760Z,2.40
2022-08-10T01:00:23.509Z,2.00
2022-08-10T01:02:50.411Z,2.75
2022-08-10T01:05:19.555Z,2.03
2022-08-10T01:08:05.250Z,2.17
2022-08-10T01:10:35.215Z,2.03
2022-08-10T01:13:05.109Z,2.05
2022-08-10T01:15:40.018Z,2.08
2022-08-10T01:18:06.853Z,2.13
2022-08-10T01:20:33.722Z,2.20
2022-08-10T01:23:19.105Z,2.00
2022-08-10T01:26:11.562Z,2.15
2022-08-10T01:28:39.629Z,2.03
2022-08-10T01:31:09.042Z,2.15
2022-08-10T01:33:58.167Z,2.60
2022-08-10T01:36:32.282Z,1.98
2022-08-10T01:39:01.554Z,1.92
2022-08-10T01:41:46.722Z,2.17
2022-08-10T01:44:16.376Z,2.17
2022-08-10T01:46:48.950Z,2.40
2022-08-10T01:49:22.283Z,2.00
2022-08-10T01:51:56.876Z,2.10
2022-08-10T01:54:28.923Z,2.00
2022-08-10T01:56:56.694Z,2.20
2022-08-10T01:59:26.177Z,2.25
2022-08-10T02:01:56.229Z,2.25
2022-08-10T02:04:24.307Z,1.95
2022-08-10T02:06:52.891Z,2.17
2022-08-10T02:09:30.598Z,2.10
2022-08-10T02:12:07.653Z,2.20
2022-08-10T02:14:37.354Z,2.35
2022-08-10T02:17:06.397Z,2.20
2022-08-10T02:19:34.842Z,2.28
2022-08-10T02:22:37.116Z,2.45
2022-08-10T02:24:49.889Z,2.33
2022-08-10T02:27:18.192Z,2.25
2022-08-10T02:29:45.658Z,2.15
2022-08-10T02:32:23.783Z,2.33
2022-08-10T02:35:06.018Z,2.40
2022-08-10T02:37:34.354Z,2.42
2022-08-10T02:40:01.235Z,2.17
2022-08-10T02:45:23.752Z,2.50
2022-08-10T02:48:09.841Z,2.22
2022-08-10T02:50:38.314Z,2.40
2022-08-10T02:53:55.333Z,2.28
2022-08-10T02:56:14.926Z,2.25
2022-08-10T02:58:46.043Z,2.88
2022-08-10T03:01:14.395Z,2.20
2022-08-10T03:03:53.197Z,2.17
2022-08-10T03:06:22.201Z,2.20
2022-08-10T03:08:49.363Z,2.33
2022-08-10T03:12:35.125Z,2.47
2022-08-10T03:14:15.192Z,2.38
2022-08-10T03:16:42.795Z,2.35
2022-08-10T03:20:35.453Z,2.10
2022-08-10T03:21:57.521Z,2.30
2022-08-10T03:24:30.492Z,2.30
2022-08-10T03:27:00.100Z,2.20
2022-08-10T03:29:27.739Z,2.17
2022-08-10T03:31:55.579Z,2.35
2022-08-10T03:34:33.437Z,2.25
2022-08-10T03:37:01.078Z,2.42
2022-08-10T03:39:28.088Z,2.53
2022-08-10T03:41:57.775Z,2.50
2022-08-10T03:44:27.607Z,3.58
2022-08-10T03:46:55.515Z,2.40
2022-08-10T03:49:23.274Z,2.30
2022-08-10T03:51:51.524Z,2.75
2022-08-10T03:54:18.849Z,2.50
2022-08-10T03:56:46.230Z,2.75
2022-08-10T03:59:14.233Z,2.63
2022-08-10T04:02:45.681Z,2.33
2022-08-10T04:04:29.155Z,2.63
2022-08-10T04:06:57.007Z,2.95
2022-08-10T04:09:29.680Z,2.95
2022-08-10T04:12:15.748Z,2.55
2022-08-10T04:14:51.537Z,2.85
2022-08-10T04:18:01.282Z,2.78
2022-08-10T04:20:09.843Z,2.90
2022-08-10T04:22:37.806Z,2.72
2022-08-10T04:25:05.583Z,2.83
2022-08-10T04:27:32.691Z,3.95
2022-08-10T04:29:59.783Z,2.75
2022-08-10T04:32:26.887Z,2.83
2022-08-10T04:34:54.901Z,3.08
2022-08-10T04:37:22.367Z,2.85
2022-08-10T04:39:49.353Z,2.95
2022-08-10T04:42:17.592Z,3.70
2022-08-10T04:44:44.632Z,3.63
2022-08-10T04:47:11.490Z,3.80
2022-08-10T04:49:56.423Z,4.80
2022-08-10T04:52:25.193Z,4.30
2022-08-10T04:54:52.335Z,4.30
2022-08-10T04:57:19.774Z,4.88
2022-08-10T04:59:46.827Z,5.30
2022-08-10T05:02:30.089Z,4.80
2022-08-10T05:04:58.846Z,5.28
2022-08-10T05:07:25.747Z,5.15
2022-08-10T05:10:04.781Z,5.10
2022-08-10T05:12:37.119Z,4.82
2022-08-10T05:15:06.041Z,5.07
2022-08-10T05:17:33.439Z,5.07
2022-08-10T05:20:04.244Z,4.65
2022-08-10T05:22:33.683Z,4.78
2022-08-10T05:25:00.668Z,4.55
2022-08-10T05:27:27.595Z,4.22
2022-08-10T05:30:01.580Z,4.20
2022-08-10T05:32:30.490Z,4.68
2022-08-10T05:34:57.782Z,4.15
2022-08-10T05:38:10.202Z,4.75
2022-08-10T05:40:12.167Z,4.50
2022-08-10T05:42:39.351Z,3.58
2022-08-10T05:45:09.497Z,4.20
2022-08-10T05:48:54.953Z,3.78
2022-08-10T05:50:31.193Z,3.78
2022-08-10T05:52:59.255Z,3.42
2022-08-10T05:55:30.106Z,3.75
2022-08-10T05:57:57.411Z,3.53
2022-08-10T06:00:37.437Z,3.42
2022-08-10T06:03:08.447Z,3.70
2022-08-10T06:05:37.349Z,3.70
2022-08-10T06:08:17.494Z,3.25
2022-08-10T06:12:24.407Z,3.25
2022-08-10T06:13:59.568Z,3.40
2022-08-10T06:16:39.625Z,3.38
2022-08-10T06:19:07.291Z,3.67
2022-08-10T06:21:34.416Z,3.45
2022-08-10T06:24:02.231Z,3.85
2022-08-10T06:26:29.107Z,3.60
2022-08-10T06:29:02.703Z,3.70
2022-08-10T06:31:46.851Z,3.78
2022-08-10T06:34:17.176Z,3.85
2022-08-10T06:36:44.712Z,3.70
2022-08-10T06:39:32.492Z,3.30
2022-08-10T06:42:15.783Z,3.42
2022-08-10T06:44:54.968Z,3.42
2022-08-10T06:47:24.174Z,3.65
2022-08-10T06:49:53.207Z,3.30
2022-08-10T06:52:20.758Z,4.03
2022-08-10T06:54:49.211Z,3.55
2022-08-10T06:57:18.396Z,3.75
2022-08-10T06:59:46.523Z,3.20
2022-08-10T07:02:19.719Z,3.55
2022-08-10T07:04:48.754Z,3.30
2022-08-10T07:07:17.384Z,3.53
2022-08-10T07:09:45.414Z,3.33
2022-08-10T07:12:14.040Z,3.50
2022-08-10T07:14:42.578Z,3.50
2022-08-10T07:17:15.730Z,3.55
2022-08-10T07:19:49.564Z,3.55
2022-08-10T07:23:08.707Z,3.33
2022-08-10T07:25:07.455Z,4.00
2022-08-10T07:27:39.149Z,3.88
2022-08-10T07:30:21.794Z,3.75
2022-08-10T07:32:50.286Z,3.33
2022-08-10T07:35:18.878Z,3.65
2022-08-10T07:37:49.620Z,3.63
2022-08-10T07:40:20.190Z,4.00
2022-08-10T07:42:52.369Z,3.95
2022-08-10T07:45:19.541Z,3.35
2022-08-10T07:47:55.006Z,3.45
2022-08-10T07:50:24.653Z,3.55
2022-08-10T07:52:53.498Z,4.00
2022-08-10T07:56:05.147Z,3.67
2022-08-10T07:58:09.079Z,3.65
2022-08-10T08:00:36.450Z,3.40
2022-08-10T08:03:04.361Z,3.17
2022-08-10T08:05:57.708Z,3.17
2022-08-10T08:08:21.892Z,3.22
2022-08-10T08:10:50.948Z,3.42
2022-08-10T08:13:20.793Z,3.47
2022-08-10T08:16:17.940Z,3.05
2022-08-10T08:18:37.732Z,3.15
2022-08-10T08:21:13.672Z,3.00
2022-08-10T08:24:06.838Z,2.80
2022-08-10T08:26:40.716Z,2.80
2022-08-10T08:29:09.105Z,2.88
2022-08-10T08:31:36.624Z,2.90
2022-08-10T08:34:21.996Z,3.60
2022-08-10T08:36:50.150Z,2.92
2022-08-10T08:39:18.186Z,3.05
2022-08-10T08:41:48.095Z,3.42
2022-08-10T08:44:15.360Z,3.10
2022-08-10T08:46:57.052Z,2.80
2022-08-10T08:50:07.985Z,3.17
2022-08-10T08:52:31.707Z,2.88
2022-08-10T08:54:58.681Z,3.08
2022-08-10T08:57:50.514Z,2.53
2022-08-10T09:00:21.278Z,2.47
2022-08-10T09:03:07.046Z,2.70
2022-08-10T09:06:00.064Z,2.40
2022-08-10T09:08:43.885Z,2.60
2022-08-10T09:11:13.604Z,2.33
2022-08-10T09:13:46.857Z,2.50
2022-08-10T09:16:28.110Z,2.42
2022-08-10T09:19:07.812Z,2.45
2022-08-10T09:22:12.423Z,2.67
2022-08-10T09:24:46.205Z,2.67
2022-08-10T09:27:19.755Z,2.63
2022-08-10T09:29:54.791Z,2.42
2022-08-10T09:36:14.339Z,1.92
2022-08-10T09:36:28.401Z,2.30
2022-08-10T09:38:05.558Z,2.00
2022-08-10T09:40:58.879Z,2.05
2022-08-10T09:45:56.044Z,2.20
2022-08-10T09:48:32.435Z,2.00
2022-08-10T09:53:52.831Z,2.15
2022-08-10T09:56:28.716Z,2.50
2022-08-10T09:59:45.864Z,2.00
2022-08-10T10:02:19.468Z,1.98
2022-08-10T10:05:16.308Z,1.85
2022-08-10T10:07:49.138Z,1.77
2022-08-10T10:10:46.534Z,2.20
2022-08-10T10:13:52.900Z,2.15
2022-08-10T10:16:23.375Z,2.20
2022-08-10T10:19:09.635Z,1.90
2022-08-10T10:21:55.506Z,2.30
2022-08-10T10:24:30.687Z,2.20
2022-08-10T10:27:06.241Z,2.00
2022-08-10T10:29:57.242Z,2.20
2022-08-10T10:32:26.202Z,2.00
2022-08-10T10:35:06.371Z,1.80
2022-08-10T10:38:02.693Z,2.20
2022-08-10T10:40:24.082Z,1.90
2022-08-10T10:43:00.579Z,1.90
2022-08-10T10:45:28.190Z,1.65
2022-08-10T10:48:17.664Z,1.75
2022-08-10T10:53:31.456Z,1.65
2022-08-10T10:56:17.018Z,1.90
2022-08-10T10:59:16.173Z,2.00
2022-08-10T11:01:54.039Z,1.70
2022-08-10T11:04:39.266Z,1.77
2022-08-10T11:07:31.950Z,1.90
2022-08-10T11:10:33.861Z,1.95
2022-08-10T11:14:25.409Z,1.85
2022-08-10T11:16:05.963Z,1.80
2022-08-10T11:18:38.411Z,1.75
2022-08-10T11:21:05.774Z,1.70
2022-08-10T11:23:41.420Z,1.60
2022-08-10T11:26:12.584Z,1.67
2022-08-10T11:28:48.559Z,1.60
2022-08-10T11:31:15.612Z,1.70
2022-08-10T11:34:11.700Z,1.90
2022-08-10T11:36:34.846Z,1.80
2022-08-10T11:39:24.716Z,1.60
2022-08-10T11:42:07.093Z,1.38
2022-08-10T11:44:52.520Z,1.75
2022-08-10T11:47:23.601Z,1.83
2022-08-10T11:49:54.171Z,1.70
2022-08-10T11:52:40.460Z,1.80
2022-08-10T11:55:27.743Z,1.70
2022-08-10T11:58:24.522Z,1.70
2022-08-10T12:00:52.422Z,1.50
2022-08-10T12:03:20.176Z,1.80
2022-08-10T12:05:54.973Z,1.90
2022-08-10T12:10:02.024Z,1.70
2022-08-10T12:11:12.836Z,1.35
2022-08-10T12:14:21.255Z,1.30
2022-08-10T12:16:50.619Z,1.50
2022-08-10T12:19:18.935Z,1.40
2022-08-10T12:21:48.224Z,1.42
2022-08-10T12:24:15.442Z,1.50
2022-08-10T12:26:51.454Z,1.33
2022-08-10T12:29:26.885Z,1.50
2022-08-10T12:32:04.261Z,1.40
2022-08-10T12:34:41.364Z,1.60
2022-08-10T12:37:23.271Z,1.40
2022-08-10T12:40:17.767Z,1.50
2022-08-10T12:43:13.249Z,1.50
2022-08-10T12:46:04.353Z,1.50
2022-08-10T12:48:41.981Z,1.42
2022-08-10T12:51:19.319Z,1.33
2022-08-10T12:53:52.923Z,1.20
2022-08-10T12:56:21.925Z,1.30
2022-08-10T12:58:57.829Z,1.42
2022-08-10T13:02:10.683Z,1.20
2022-08-10T13:04:22.711Z,1.40
2022-08-10T13:06:52.269Z,1.20
2022-08-10T13:09:24.361Z,1.20
2022-08-10T13:12:36.687Z,1.35
2022-08-10T13:15:45.049Z,1.17
2022-08-10T13:17:57.888Z,1.10
2022-08-10T13:20:29.982Z,1.17
2022-08-10T13:22:59.762Z,1.50
2022-08-10T13:25:29.934Z,1.42
2022-08-10T13:28:34.908Z,1.30
2022-08-10T13:30:50.849Z,1.90
2022-08-10T13:34:41.632Z,1.48
2022-08-10T13:36:05.564Z,1.20
2022-08-10T13:38:33.847Z,1.25
2022-08-10T13:41:01.181Z,1.38
2022-08-10T13:43:28.117Z,1.30
2022-08-10T13:45:55.880Z,1.30
2022-08-10T13:48:23.753Z,1.23
2022-08-10T13:50:52.137Z,1.13
2022-08-10T13:53:20.200Z,1.70
2022-08-10T13:55:55.533Z,1.75
2022-08-10T13:58:33.449Z,1.60
2022-08-10T14:01:02.490Z,1.42
2022-08-10T14:03:34.576Z,1.50
2022-08-10T14:06:03.652Z,1.60
2022-08-10T14:08:31.904Z,1.25
2022-08-10T14:11:12.592Z,1.27
2022-08-10T14:13:45.553Z,1.20
2022-08-10T14:16:12.706Z,1.30
2022-08-10T14:18:42.482Z,1.35
2022-08-10T14:21:09.899Z,1.30
2022-08-10T14:23:41.582Z,1.30
2022-08-10T14:26:10.478Z,1.30
2022-08-10T14:28:44.259Z,1.10
2022-08-10T14:31:13.470Z,1.20
2022-08-10T14:33:43.870Z,1.40
2022-08-10T14:36:19.741Z,1.33
2022-08-10T14:38:54.315Z,1.23
2022-08-10T14:42:02.646Z,1.38
2022-08-10T14:44:13.790Z,1.13
2022-08-10T14:46:44.909Z,1.08
2022-08-10T14:49:25.753Z,1.00
2022-08-10T14:51:57.975Z,1.00
2022-08-10T14:54:29.470Z,1.25
2022-08-10T14:57:11.207Z,1.10
2022-08-10T15:00:24.413Z,1.00
2022-08-10T15:02:40.748Z,1.10
2022-08-10T15:05:21.336Z,1.20
2022-08-10T15:07:59.127Z,1.13
2022-08-10T15:10:27.924Z,1.20
2022-08-10T15:12:58.586Z,1.00
2022-08-10T15:15:28.817Z,1.30
2022-08-10T15:17:57.917Z,1.20
2022-08-10T15:20:27.800Z,1.20
2022-08-10T15:22:59.451Z,1.25
2022-08-10T15:25:27.484Z,1.20
2022-08-10T15:28:05.626Z,1.00
2022-08-10T15:30:39.602Z,1.00
2022-08-10T15:34:02.719Z,1.10
2022-08-10T15:36:37.561Z,1.10
2022-08-10T15:39:16.663Z,1.33
2022-08-10T15:41:58.017Z,1.10
2022-08-10T15:44:38.767Z,1.20
2022-08-10T15:47:08.357Z,1.23
2022-08-10T15:49:46.905Z,1.30
2022-08-10T15:52:39.505Z,1.25
2022-08-10T15:55:41.152Z,1.15
2022-08-10T15:58:03.211Z,1.33
2022-08-10T16:00:31.977Z,1.20
2022-08-10T16:03:08.378Z,1.17
2022-08-10T16:06:02.421Z,1.08
2022-08-10T16:08:36.945Z,1.10
2022-08-10T16:11:25.694Z,1.30
2022-08-10T16:14:00.675Z,1.33
2022-08-10T16:16:34.654Z,1.20
2022-08-10T16:19:03.248Z,1.30
2022-08-10T16:21:57.090Z,1.10
2022-08-10T16:24:24.932Z,1.10
2022-08-10T16:26:53.709Z,1.27
2022-08-10T16:29:22.281Z,1.20
2022-08-10T16:31:56.681Z,1.10
2022-08-10T16:34:25.548Z,1.30
2022-08-10T16:36:54.478Z,1.38
2022-08-10T16:39:58.507Z,1.20
2022-08-10T16:42:18.569Z,1.27
2022-08-10T16:44:51.564Z,1.27
2022-08-10T16:47:27.171Z,1.20
2022-08-10T16:49:56.144Z,1.20
2022-08-10T16:52:24.650Z,1.40
2022-08-10T16:54:53.114Z,1.15
2022-08-10T16:57:21.128Z,1.08
2022-08-10T16:59:48.465Z,1.20
2022-08-10T17:02:17.565Z,1.08
2022-08-10T17:04:46.405Z,1.30
2022-08-10T17:07:16.096Z,1.17
2022-08-10T17:09:47.511Z,1.08
2022-08-10T17:12:16.749Z,1.20
2022-08-10T17:14:44.296Z,0.90
2022-08-10T17:17:31.316Z,1.20
2022-08-10T17:20:30.420Z,1.15
2022-08-10T17:23:00.785Z,0.93
2022-08-10T17:25:48.852Z,1.10
2022-08-10T17:28:35.218Z,1.00
2022-08-10T17:31:53.597Z,0.90
2022-08-10T17:34:21.987Z,1.00
2022-08-10T17:36:51.923Z,1.00
2022-08-10T17:39:21.759Z,1.10
2022-08-10T17:41:51.911Z,1.10
2022-08-10T17:44:19.304Z,1.00
2022-08-10T17:46:46.910Z,1.13
2022-08-10T17:49:18.427Z,1.00
2022-08-10T17:51:53.955Z,1.10
2022-08-10T17:54:29.133Z,1.50
2022-08-10T17:56:58.396Z,1.13
2022-08-10T17:59:26.647Z,1.15
2022-08-10T18:02:01.381Z,1.55
2022-08-10T18:04:41.354Z,1.20
2022-08-10T18:07:10.779Z,1.30
2022-08-10T18:09:50.312Z,1.73
2022-08-10T18:12:22.721Z,1.20
2022-08-10T18:14:54.101Z,1.50
2022-08-10T18:17:23.505Z,1.70
2022-08-10T18:19:57.091Z,1.40
2022-08-10T18:22:24.730Z,1.27
2022-08-10T18:24:52.882Z,1.30
2022-08-10T18:27:20.289Z,1.40
2022-08-10T18:29:49.944Z,1.25
2022-08-10T18:32:18.809Z,1.35
2022-08-10T18:34:47.742Z,1.50
2022-08-10T18:37:20.806Z,1.40
2022-08-10T18:39:49.208Z,1.30
2022-08-10T18:42:21.771Z,1.42
2022-08-10T18:44:52.785Z,1.35
2022-08-10T18:47:55.228Z,1.40
2022-08-10T18:50:29.043Z,1.60
2022-08-10T18:52:58.709Z,1.70
2022-08-10T18:55:35.398Z,1.60
2022-08-10T18:58:26.782Z,1.42
2022-08-10T19:01:03.197Z,1.60
2022-08-10T19:03:54.178Z,1.85
2022-08-10T19:06:33.457Z,2.00
2022-08-10T19:09:00.593Z,1.80
2022-08-10T19:11:46.843Z,1.75
2022-08-10T19:14:19.102Z,1.88
2022-08-10T19:17:05.579Z,2.45
2022-08-10T19:19:36.479Z,2.60
2022-08-10T19:22:15.153Z,2.80
2022-08-10T19:24:48.566Z,2.17
2022-08-10T19:27:36.062Z,2.05
2022-08-10T19:30:16.651Z,1.90
2022-08-10T19:32:54.991Z,1.65
2022-08-10T19:36:03.839Z,1.92
2022-08-10T19:38:33.027Z,1.80
2022-08-10T19:41:19.384Z,1.90
2022-08-10T19:44:16.744Z,1.90
2022-08-10T19:46:55.558Z,1.90
2022-08-10T19:49:22.467Z,1.95
2022-08-10T19:51:55.761Z,2.20
2022-08-10T19:54:55.132Z,1.98
2022-08-10T19:57:34.959Z,2.05
2022-08-10T20:00:19.288Z,2.13
2022-08-10T20:02:58.472Z,2.28
2022-08-10T20:06:13.018Z,2.30
2022-08-10T20:08:48.212Z,2.20
2022-08-10T20:11:46.480Z,1.90
2022-08-10T20:14:21.793Z,1.80
2022-08-10T20:16:55.878Z,1.90
2022-08-10T20:19:53.080Z,1.90
2022-08-10T20:22:30.394Z,2.10
2022-08-10T20:25:17.105Z,2.00
2022-08-10T20:27:59.836Z,1.77
2022-08-10T20:30:41.910Z,1.98
2022-08-10T20:33:19.002Z,1.90
2022-08-10T20:38:27.283Z,2.10
2022-08-10T20:40:57.705Z,2.15
2022-08-10T20:43:29.666Z,2.20
2022-08-10T20:46:09.441Z,2.10
2022-08-10T20:48:54.976Z,2.03
2022-08-10T20:51:23.747Z,2.05
2022-08-10T20:54:11.488Z,2.03
2022-08-10T20:57:01.643Z,1.92
2022-08-10T21:00:03.838Z,2.08
2022-08-10T21:03:06.613Z,2.10
2022-08-10T21:08:10.830Z,2.03
2022-08-10T21:10:58.251Z,2.38
2022-08-10T21:13:43.801Z,1.80
2022-08-10T21:16:35.860Z,1.95
2022-08-10T21:19:25.939Z,2.00
2022-08-10T21:22:15.586Z,1.73
2022-08-10T21:24:52.052Z,1.88
2022-08-10T21:27:28.411Z,1.77
2022-08-10T21:30:09.419Z,1.80
2022-08-10T21:32:36.799Z,2.13
2022-08-10T21:35:37.135Z,2.08
2022-08-10T21:38:07.972Z,2.05
2022-08-10T21:40:38.159Z,2.10
2022-08-10T21:43:57.662Z,2.10
2022-08-10T21:47:01.710Z,1.88
2022-08-10T21:50:25.516Z,2.05
2022-08-10T21:53:22.757Z,2.10
2022-08-10T21:56:47.055Z,2.00
2022-08-10T21:59:44.964Z,2.00
2022-08-10T22:02:35.101Z,1.85
2022-08-10T22:05:21.440Z,1.92
2022-08-10T22:08:12.322Z,1.98
2022-08-10T22:11:04.700Z,1.70
2022-08-10T22:13:53.865Z,1.80
2022-08-10T22:16:48.365Z,1.60
2022-08-10T22:19:37.221Z,2.25
2022-08-10T22:22:27.489Z,1.98
2022-08-10T22:25:33.540Z,1.80
2022-08-10T22:28:19.408Z,1.70
2022-08-10T22:31:30.116Z,1.73
2022-08-10T22:34:21.128Z,1.90
2022-08-10T22:37:06.565Z,1.90
2022-08-10T22:40:13.399Z,1.77
2022-08-10T22:43:09.858Z,1.80
2022-08-10T22:45:57.782Z,1.70
2022-08-10T22:48:43.928Z,1.77
2022-08-10T22:51:20.281Z,2.10
2022-08-10T22:54:30.744Z,1.90
2022-08-10T22:57:21.491Z,1.98
2022-08-10T22:59:49.860Z,2.33
2022-08-10T23:02:31.201Z,2.20
2022-08-10T23:05:05.179Z,2.15
2022-08-10T23:07:37.099Z,1.95
2022-08-10T23:10:10.528Z,1.90
2022-08-10T23:12:48.928Z,1.90
2022-08-10T23:15:41.464Z,1.95
2022-08-10T23:18:29.053Z,2.10
2022-08-10T23:21:00.029Z,1.70
2022-08-10T23:25:56.345Z,2.30
2022-08-10T23:28:38.243Z,1.98
2022-08-10T23:31:13.537Z,2.20
2022-08-10T23:33:41.329Z,2.47
2022-08-10T23:36:34.243Z,2.05
2022-08-10T23:39:25.201Z,2.30
2022-08-10T23:41:46.742Z,2.20
2022-08-10T23:44:21.515Z,2.10
2022-08-10T23:46:48.902Z,2.08
2022-08-10T23:49:16.413Z,2.00
2022-08-10T23:51:54.997Z,2.63
2022-08-10T23:54:24.012Z,2.17
2022-08-10T23:56:52.337Z,2.00
2022-08-10T23:59:23.731Z,2.20
